createdAt,value
2018-07-24T00:02:04.260Z,11.77
2018-07-24T00:04:35.372Z,12.80
2018-07-24T00:07:03.885Z,13.30
2018-07-24T00:09:32.345Z,12.53
2018-07-24T00:12:01.079Z,12.83
2018-07-24T00:14:29.672Z,12.63
2018-07-24T00:16:58.099Z,12.10
2018-07-24T00:19:26.582Z,12.60
2018-07-24T00:21:55.196Z,11.90
2018-07-24T00:24:23.383Z,11.50
2018-07-24T00:26:51.830Z,11.53
2018-07-24T00:29:20.390Z,11.57
2018-07-24T00:31:48.928Z,11.60
2018-07-24T00:34:17.396Z,10.80
2018-07-24T00:36:45.891Z,11.30
2018-07-24T00:39:14.324Z,10.87
2018-07-24T00:41:42.910Z,11.00
2018-07-24T00:44:11.498Z,12.63
2018-07-24T00:46:40.044Z,12.63
2018-07-24T00:49:08.524Z,13.03
2018-07-24T00:51:37.105Z,13.50
2018-07-24T00:54:05.899Z,11.67
2018-07-24T00:56:34.444Z,11.53
2018-07-24T00:59:03.068Z,14.53
2018-07-24T01:01:31.536Z,10.87
2018-07-24T01:04:00.106Z,10.87
2018-07-24T01:06:28.236Z,9.43
2018-07-24T01:08:56.744Z,9.93
2018-07-24T01:11:25.197Z,10.57
2018-07-24T01:13:53.652Z,9.17
2018-07-24T01:16:22.086Z,9.97
2018-07-24T01:18:50.533Z,10.80
2018-07-24T01:21:19.099Z,11.63
2018-07-24T01:23:47.529Z,13.10
2018-07-24T01:26:15.796Z,12.50
2018-07-24T01:28:44.382Z,12.07
2018-07-24T01:31:12.928Z,11.60
2018-07-24T01:33:41.392Z,11.83
2018-07-24T01:36:09.974Z,10.93
2018-07-24T01:38:38.415Z,10.30
2018-07-24T01:41:06.973Z,10.73
2018-07-24T01:43:35.526Z,11.63
2018-07-24T01:46:03.974Z,12.27
2018-07-24T01:48:32.506Z,10.77
2018-07-24T01:51:00.965Z,10.73
2018-07-24T01:53:29.763Z,9.50
2018-07-24T01:55:58.195Z,9.37
2018-07-24T01:58:26.781Z,11.00
2018-07-24T02:00:55.325Z,9.77
2018-07-24T02:03:23.750Z,10.80
2018-07-24T02:05:52.322Z,10.27
2018-07-24T02:08:20.783Z,10.60
2018-07-24T02:10:49.221Z,12.17
2018-07-24T02:13:17.684Z,11.47
2018-07-24T02:15:46.141Z,10.17
2018-07-24T02:18:14.674Z,9.90
2018-07-24T02:20:43.280Z,9.13
2018-07-24T02:23:11.846Z,10.50
2018-07-24T02:25:40.408Z,10.77
2018-07-24T02:28:09.344Z,9.07
2018-07-24T02:30:37.781Z,9.53
2018-07-24T02:33:06.198Z,9.80
2018-07-24T02:35:34.798Z,10.13
2018-07-24T02:38:03.271Z,8.90
2018-07-24T02:40:31.826Z,9.70
2018-07-24T02:43:00.294Z,10.10
2018-07-24T02:45:28.504Z,13.53
2018-07-24T02:47:57.052Z,12.67
2018-07-24T02:50:25.682Z,15.73
2018-07-24T02:52:54.258Z,13.77
2018-07-24T02:55:23.037Z,13.30
2018-07-24T02:57:51.512Z,13.63
2018-07-24T03:00:20.090Z,15.03
2018-07-24T03:02:49.118Z,13.33
2018-07-24T03:05:17.651Z,13.87
2018-07-24T03:07:45.804Z,15.27
2018-07-24T03:10:14.287Z,14.27
2018-07-24T03:12:42.752Z,12.20
2018-07-24T03:15:11.209Z,12.37
2018-07-24T03:17:39.670Z,16.23
2018-07-24T03:20:08.277Z,15.23
2018-07-24T03:22:36.758Z,15.70
2018-07-24T03:25:05.226Z,15.63
2018-07-24T03:27:33.696Z,14.47
2018-07-24T03:30:01.853Z,14.70
2018-07-24T03:32:30.461Z,14.77
2018-07-24T03:34:58.918Z,13.80
2018-07-24T03:37:27.363Z,14.43
2018-07-24T03:39:55.816Z,14.83
2018-07-24T03:42:24.293Z,16.73
2018-07-24T03:44:52.737Z,15.53
2018-07-24T03:47:21.201Z,16.40
2018-07-24T03:49:49.847Z,17.00
2018-07-24T03:52:18.327Z,17.23
2018-07-24T03:54:46.913Z,16.80
2018-07-24T03:57:15.365Z,16.87
2018-07-24T03:59:43.498Z,17.07
2018-07-24T04:02:12.068Z,17.13
2018-07-24T04:04:40.540Z,17.87
2018-07-24T04:07:08.995Z,17.63
2018-07-24T04:09:37.501Z,17.10
2018-07-24T04:12:06.019Z,16.90
2018-07-24T04:14:34.459Z,17.20
2018-07-24T04:17:02.943Z,18.30
2018-07-24T04:19:31.399Z,17.13
2018-07-24T04:21:59.611Z,17.60
2018-07-24T04:24:28.039Z,17.80
2018-07-24T04:26:56.641Z,17.40
2018-07-24T04:29:25.107Z,18.20
2018-07-24T04:31:53.781Z,17.93
2018-07-24T04:34:22.348Z,20.20
2018-07-24T04:36:50.883Z,21.60
2018-07-24T04:39:19.029Z,21.47
2018-07-24T04:41:47.475Z,20.27
2018-07-24T04:44:15.951Z,21.07
2018-07-24T04:46:44.401Z,20.87
2018-07-24T04:49:12.892Z,20.70
2018-07-24T04:51:41.367Z,21.70
2018-07-24T04:54:09.512Z,21.00
2018-07-24T04:56:38.011Z,21.07
2018-07-24T04:59:06.634Z,20.47
2018-07-24T05:01:35.204Z,21.37
2018-07-24T05:04:03.910Z,19.77
2018-07-24T05:06:32.418Z,21.63
2018-07-24T05:09:02.209Z,20.50
2018-07-24T05:11:30.795Z,20.03
2018-07-24T05:13:59.254Z,19.67
2018-07-24T05:16:27.718Z,20.53
2018-07-24T05:18:56.161Z,20.53
2018-07-24T05:21:24.742Z,19.93
2018-07-24T05:23:53.182Z,20.60
2018-07-24T05:26:21.632Z,20.60
2018-07-24T05:28:50.098Z,19.63
2018-07-24T05:31:19.051Z,19.77
2018-07-24T05:33:47.514Z,19.33
2018-07-24T05:36:16.028Z,19.23
2018-07-24T05:38:44.633Z,18.63
2018-07-24T05:41:13.199Z,18.13
2018-07-24T05:43:41.752Z,17.83
2018-07-24T05:46:09.898Z,18.60
2018-07-24T05:48:39.327Z,19.10
2018-07-24T05:51:07.936Z,17.47
2018-07-24T05:53:36.364Z,18.23
2018-07-24T05:56:04.889Z,18.27
2018-07-24T05:58:33.348Z,16.93
2018-07-24T06:01:01.870Z,16.77
2018-07-24T06:03:31.245Z,18.73
2018-07-24T06:05:59.538Z,17.90
2018-07-24T06:08:28.094Z,18.40
2018-07-24T06:10:56.588Z,16.23
2018-07-24T06:13:25.169Z,17.03
2018-07-24T06:15:53.425Z,16.77
2018-07-24T06:18:21.894Z,15.60
2018-07-24T06:20:50.388Z,16.27
2018-07-24T06:23:18.838Z,16.27
2018-07-24T06:25:47.421Z,16.17
2018-07-24T06:28:15.976Z,17.57
2018-07-24T06:30:44.521Z,16.97
2018-07-24T06:33:13.101Z,15.40
2018-07-24T06:35:41.832Z,18.27
2018-07-24T06:38:10.018Z,17.80
2018-07-24T06:40:38.613Z,15.97
2018-07-24T06:43:07.468Z,15.97
2018-07-24T06:45:36.729Z,16.63
2018-07-24T06:48:05.208Z,16.73
2018-07-24T06:50:33.654Z,16.33
2018-07-24T06:53:02.101Z,15.73
2018-07-24T06:55:30.270Z,16.67
2018-07-24T06:57:58.735Z,15.40
2018-07-24T07:00:27.208Z,16.20
2018-07-24T07:02:55.675Z,14.63
2018-07-24T07:05:24.105Z,13.57
2018-07-24T07:07:52.574Z,14.33
2018-07-24T07:10:21.126Z,14.00
2018-07-24T07:12:49.531Z,11.93
2018-07-24T07:15:18.279Z,10.70
2018-07-24T07:17:46.850Z,10.50
2018-07-24T07:20:15.342Z,12.03
2018-07-24T07:22:43.810Z,11.30
2018-07-24T07:25:12.285Z,14.60
2018-07-24T07:27:40.412Z,10.37
2018-07-24T07:30:08.884Z,12.83
2018-07-24T07:32:37.440Z,11.93
2018-07-24T07:35:06.006Z,10.77
2018-07-24T07:37:34.668Z,11.77
2018-07-24T07:40:03.148Z,9.40
2018-07-24T07:42:31.662Z,9.77
2018-07-24T07:45:00.188Z,8.37
2018-07-24T07:47:28.737Z,7.40
2018-07-24T07:49:57.238Z,8.17
2018-07-24T07:52:25.692Z,6.40
2018-07-24T07:54:54.146Z,7.53
2018-07-24T07:57:23.507Z,8.90
2018-07-24T07:59:52.069Z,9.47
2018-07-24T08:02:20.542Z,9.00
2018-07-24T08:04:48.680Z,6.40
2018-07-24T08:07:17.246Z,6.40
2018-07-24T08:09:45.703Z,7.37
2018-07-24T08:12:14.229Z,5.33
2018-07-24T08:14:42.714Z,8.17
2018-07-24T08:17:11.341Z,7.63
2018-07-24T08:19:39.930Z,7.47
2018-07-24T08:22:08.441Z,8.53
2018-07-24T08:24:36.943Z,9.33
2018-07-24T08:27:05.557Z,9.37
2018-07-24T08:29:33.683Z,6.57
2018-07-24T08:32:02.230Z,6.97
2018-07-24T08:34:30.441Z,8.10
2018-07-24T08:36:58.968Z,6.57
2018-07-24T08:39:27.425Z,5.87
2018-07-24T08:41:56.033Z,7.53
2018-07-24T08:44:24.480Z,8.60
2018-07-24T08:46:52.954Z,5.47
2018-07-24T08:49:21.504Z,5.80
2018-07-24T08:51:49.725Z,6.13
2018-07-24T08:54:18.556Z,5.73
2018-07-24T08:56:46.854Z,5.03
2018-07-24T08:59:15.410Z,4.67
2018-07-24T09:01:43.905Z,4.87
2018-07-24T09:04:12.495Z,5.33
2018-07-24T09:06:41.033Z,5.43
2018-07-24T09:09:11.438Z,4.87
2018-07-24T09:11:40.518Z,5.27
2018-07-24T09:14:09.020Z,5.37
2018-07-24T09:16:37.998Z,5.07
2018-07-24T09:19:06.556Z,6.57
2018-07-24T09:21:35.031Z,6.97
2018-07-24T09:24:03.662Z,6.73
2018-07-24T09:26:32.332Z,7.23
2018-07-24T09:29:01.033Z,4.37
2018-07-24T09:31:29.620Z,7.33
2018-07-24T09:33:58.242Z,4.40
2018-07-24T09:36:26.696Z,6.27
2018-07-24T09:38:55.164Z,4.60
2018-07-24T09:41:23.865Z,4.33
2018-07-24T09:43:52.484Z,6.97
2018-07-24T09:46:21.501Z,4.63
2018-07-24T09:48:49.804Z,5.90
2018-07-24T09:51:18.289Z,3.90
2018-07-24T09:53:46.848Z,4.20
2018-07-24T09:56:15.423Z,4.83
2018-07-24T09:58:43.901Z,5.50
2018-07-24T10:01:17.770Z,5.07
2018-07-24T10:03:46.205Z,4.63
2018-07-24T10:06:14.704Z,6.60
2018-07-24T10:08:43.208Z,4.40
2018-07-24T10:11:11.829Z,4.80
2018-07-24T10:13:40.458Z,5.67
2018-07-24T10:16:08.921Z,5.50
2018-07-24T10:18:37.393Z,4.40
2018-07-24T10:21:05.988Z,6.20
2018-07-24T10:23:34.447Z,5.13
2018-07-24T10:26:02.899Z,4.50
2018-07-24T10:28:31.439Z,5.67
2018-07-24T10:31:00.008Z,4.37
2018-07-24T10:33:28.483Z,4.10
2018-07-24T10:35:57.099Z,6.17
2018-07-24T10:38:25.713Z,4.10
2018-07-24T10:40:54.247Z,4.10
2018-07-24T10:43:22.740Z,4.40
2018-07-24T10:45:51.497Z,5.10
2018-07-24T10:48:19.962Z,4.80
2018-07-24T10:50:48.460Z,4.90
2018-07-24T10:53:17.041Z,4.10
2018-07-24T10:55:45.511Z,5.27
2018-07-24T10:58:14.066Z,4.40
2018-07-24T11:00:42.624Z,5.27
2018-07-24T11:03:11.209Z,5.17
2018-07-24T11:05:39.658Z,7.30
2018-07-24T11:08:08.171Z,6.07
2018-07-24T11:10:36.430Z,4.60
2018-07-24T11:13:04.881Z,5.57
2018-07-24T11:15:33.406Z,4.07
2018-07-24T11:18:01.857Z,6.57
2018-07-24T11:20:30.312Z,7.73
2018-07-24T11:22:58.838Z,5.43
2018-07-24T11:25:27.331Z,3.47
2018-07-24T11:27:55.908Z,4.30
2018-07-24T11:30:24.688Z,5.13
2018-07-24T11:32:53.349Z,5.73
2018-07-24T11:35:21.932Z,4.50
2018-07-24T11:37:51.745Z,3.57
2018-07-24T11:40:20.265Z,3.90
2018-07-24T11:42:48.842Z,5.27
2018-07-24T11:45:17.490Z,4.20
2018-07-24T11:47:45.976Z,3.60
2018-07-24T11:50:15.484Z,3.53
2018-07-24T11:52:44.032Z,3.83
2018-07-24T11:55:12.640Z,4.97
2018-07-24T11:57:41.307Z,3.47
2018-07-24T12:00:09.777Z,3.60
2018-07-24T12:02:38.219Z,3.60
2018-07-24T12:05:07.271Z,3.53
2018-07-24T12:07:35.832Z,3.97
2018-07-24T12:10:04.949Z,5.50
2018-07-24T12:12:33.446Z,5.07
2018-07-24T12:15:02.081Z,3.80
2018-07-24T12:17:30.543Z,3.77
2018-07-24T12:19:59.033Z,3.93
2018-07-24T12:22:27.517Z,4.77
2018-07-24T12:24:56.273Z,3.97
2018-07-24T12:27:24.950Z,3.67
2018-07-24T12:29:53.423Z,4.40
2018-07-24T12:32:21.906Z,4.30
2018-07-24T12:34:50.406Z,3.97
2018-07-24T12:37:19.002Z,4.73
2018-07-24T12:39:47.478Z,4.30
2018-07-24T12:42:16.136Z,4.50
2018-07-24T12:44:45.144Z,5.13
2018-07-24T12:47:13.658Z,3.90
2018-07-24T12:49:42.188Z,4.23
2018-07-24T12:52:10.395Z,3.93
2018-07-24T12:54:38.926Z,4.13
2018-07-24T12:57:07.528Z,4.50
2018-07-24T12:59:36.012Z,4.03
2018-07-24T13:02:04.502Z,4.60
2018-07-24T13:04:32.988Z,4.63
2018-07-24T13:07:01.601Z,6.53
2018-07-24T13:09:30.132Z,4.30
2018-07-24T13:11:58.636Z,6.00
2018-07-24T13:14:27.215Z,4.93
2018-07-24T13:16:55.724Z,4.47
2018-07-24T13:19:24.187Z,5.27
2018-07-24T13:21:52.408Z,5.27
2018-07-24T13:24:21.105Z,4.13
2018-07-24T13:26:49.542Z,4.80
2018-07-24T13:29:18.015Z,3.60
2018-07-24T13:31:46.664Z,5.83
2018-07-24T13:34:15.121Z,4.13
2018-07-24T13:36:43.697Z,3.80
2018-07-24T13:39:12.389Z,4.83
2018-07-24T13:41:41.467Z,3.70
2018-07-24T13:44:10.175Z,3.40
2018-07-24T13:46:38.697Z,3.67
2018-07-24T13:49:07.451Z,3.53
2018-07-24T13:51:35.945Z,5.03
2018-07-24T13:54:04.411Z,4.60
2018-07-24T13:56:32.914Z,3.70
2018-07-24T13:59:01.540Z,11.83
2018-07-24T14:01:29.988Z,3.50
2018-07-24T14:03:58.494Z,10.67
2018-07-24T14:06:27.039Z,3.93
2018-07-24T14:08:55.541Z,4.23
2018-07-24T14:11:24.006Z,7.50
2018-07-24T14:13:52.469Z,5.37
2018-07-24T14:16:20.943Z,4.50
2018-07-24T14:18:49.423Z,3.50
2018-07-24T14:21:18.115Z,3.67
2018-07-24T14:23:46.765Z,3.93
2018-07-24T14:26:15.285Z,3.90
2018-07-24T14:28:43.792Z,4.93
2018-07-24T14:31:12.283Z,4.70
2018-07-24T14:33:40.799Z,4.37
2018-07-24T14:36:09.429Z,3.77
2018-07-24T14:38:39.133Z,4.80
2018-07-24T14:41:07.616Z,3.87
2018-07-24T14:43:36.091Z,4.03
2018-07-24T14:46:04.685Z,3.73
2018-07-24T14:48:33.557Z,4.90
2018-07-24T14:51:02.122Z,5.00
2018-07-24T14:53:30.313Z,4.47
2018-07-24T14:55:58.815Z,4.10
2018-07-24T14:58:27.366Z,3.50
2018-07-24T15:00:55.834Z,5.27
2018-07-24T15:03:24.320Z,4.00
2018-07-24T15:05:52.769Z,3.50
2018-07-24T15:08:21.236Z,5.20
2018-07-24T15:10:49.765Z,4.87
2018-07-24T15:13:18.609Z,5.23
2018-07-24T15:16:23.155Z,3.43
2018-07-24T15:18:51.631Z,4.07
2018-07-24T15:21:20.224Z,4.20
2018-07-24T15:23:48.672Z,8.70
2018-07-24T15:26:17.146Z,5.27
2018-07-24T15:28:45.625Z,4.53
2018-07-24T15:31:14.141Z,4.40
2018-07-24T15:33:43.565Z,3.57
2018-07-24T15:36:36.870Z,4.03
2018-07-24T15:39:08.612Z,4.37
2018-07-24T15:41:37.304Z,4.20
2018-07-24T15:44:06.207Z,3.50
2018-07-24T15:46:34.500Z,3.97
2018-07-24T15:49:03.074Z,3.77
2018-07-24T15:51:31.774Z,3.50
2018-07-24T15:54:00.662Z,4.40
2018-07-24T15:56:29.123Z,3.27
2018-07-24T15:58:58.035Z,3.20
2018-07-24T16:01:26.517Z,4.80
2018-07-24T16:03:55.090Z,3.40
2018-07-24T16:06:23.579Z,3.77
2018-07-24T16:08:52.050Z,3.37
2018-07-24T16:11:20.520Z,3.83
2018-07-24T16:13:49.024Z,6.07
2018-07-24T16:16:17.470Z,3.67
2018-07-24T16:18:46.005Z,4.23
2018-07-24T16:21:14.565Z,4.37
2018-07-24T16:23:43.062Z,4.23
2018-07-24T16:26:11.650Z,4.53
2018-07-24T16:28:40.102Z,3.30
2018-07-24T16:31:08.740Z,3.70
2018-07-24T16:33:37.368Z,3.73
2018-07-24T16:36:06.177Z,4.37
2018-07-24T16:38:34.688Z,5.10
2018-07-24T16:41:03.146Z,3.97
2018-07-24T16:43:38.194Z,3.90
2018-07-24T16:46:06.764Z,4.33
2018-07-24T16:48:35.339Z,3.50
2018-07-24T16:51:03.820Z,4.10
2018-07-24T16:53:31.983Z,4.40
2018-07-24T16:56:00.581Z,6.17
2018-07-24T16:58:28.743Z,4.30
2018-07-24T17:00:57.363Z,6.03
2018-07-24T17:03:25.842Z,4.27
2018-07-24T17:05:54.371Z,6.70
2018-07-24T17:08:23.423Z,5.23
2018-07-24T17:10:51.907Z,8.93
2018-07-24T17:13:20.353Z,8.77
2018-07-24T17:15:48.956Z,8.27
2018-07-24T17:18:17.489Z,6.53
2018-07-24T17:20:45.997Z,7.23
2018-07-24T17:23:14.449Z,6.10
2018-07-24T17:25:42.906Z,5.07
2018-07-24T17:28:11.601Z,7.77
2018-07-24T17:30:40.110Z,5.57
2018-07-24T17:33:08.594Z,4.90
2018-07-24T17:35:38.709Z,7.87
2018-07-24T17:38:07.261Z,4.90
2018-07-24T17:40:35.805Z,5.78
2018-07-24T17:43:04.290Z,7.70
2018-07-24T17:45:32.766Z,5.73
2018-07-24T17:48:01.248Z,5.83
2018-07-24T17:50:29.913Z,6.20
2018-07-24T17:52:58.365Z,9.40
2018-07-24T17:55:27.133Z,5.30
2018-07-24T17:57:55.300Z,4.87
2018-07-24T18:00:23.803Z,8.43
2018-07-24T18:02:52.329Z,5.60
2018-07-24T18:05:20.788Z,6.23
2018-07-24T18:07:49.304Z,6.63
2018-07-24T18:10:17.769Z,10.17
2018-07-24T18:12:46.393Z,7.60
2018-07-24T18:15:14.877Z,7.33
2018-07-24T18:17:43.853Z,6.03
2018-07-24T18:20:12.493Z,8.70
2018-07-24T18:22:40.989Z,6.20
2018-07-24T18:25:09.456Z,6.93
2018-07-24T18:27:38.030Z,7.67
2018-07-24T18:30:06.815Z,6.73
2018-07-24T18:32:35.266Z,5.13
2018-07-24T18:35:03.816Z,6.97
2018-07-24T18:37:32.345Z,4.97
2018-07-24T18:40:00.839Z,8.10
2018-07-24T18:42:29.441Z,7.30
2018-07-24T18:44:57.901Z,8.57
2018-07-24T18:47:26.502Z,8.70
2018-07-24T18:49:54.937Z,8.40
2018-07-24T18:52:23.466Z,7.13
2018-07-24T18:54:51.986Z,8.17
2018-07-24T18:57:20.564Z,4.63
2018-07-24T18:59:48.998Z,5.60
2018-07-24T19:02:17.484Z,9.40
2018-07-24T19:04:45.735Z,8.50
2018-07-24T19:07:14.248Z,6.40
2018-07-24T19:09:42.724Z,6.07
2018-07-24T19:12:10.890Z,8.47
2018-07-24T19:14:39.360Z,5.77
2018-07-24T19:17:08.197Z,4.50
2018-07-24T19:19:36.766Z,6.73
2018-07-24T19:22:05.424Z,5.17
2018-07-24T19:24:33.588Z,4.50
2018-07-24T19:27:02.151Z,6.63
2018-07-24T19:29:30.638Z,6.40
2018-07-24T19:31:59.096Z,3.60
2018-07-24T19:34:27.580Z,7.77
2018-07-24T19:36:56.037Z,8.50
2018-07-24T19:39:24.594Z,6.37
2018-07-24T19:41:53.075Z,7.03
2018-07-24T19:44:21.515Z,5.00
2018-07-24T19:46:49.979Z,4.73
2018-07-24T19:49:18.595Z,5.03
2018-07-24T19:51:47.055Z,4.67
2018-07-24T19:54:15.545Z,7.47
2018-07-24T19:56:43.991Z,4.83
2018-07-24T19:59:12.517Z,5.27
2018-07-24T20:01:40.957Z,6.43
2018-07-24T20:04:09.416Z,7.73
2018-07-24T20:06:37.900Z,4.33
2018-07-24T20:09:08.983Z,4.87
2018-07-24T20:11:37.467Z,5.60
2018-07-24T20:14:06.071Z,3.90
2018-07-24T20:16:34.577Z,4.07
2018-07-24T20:19:03.103Z,6.80
2018-07-24T20:21:31.689Z,4.80
2018-07-24T20:24:00.257Z,4.83
2018-07-24T20:26:28.859Z,6.30
2018-07-24T20:28:57.425Z,4.50
2018-07-24T20:31:25.921Z,4.30
2018-07-24T20:33:54.341Z,6.87
2018-07-24T20:36:23.229Z,6.13
2018-07-24T20:38:51.738Z,5.40
2018-07-24T20:41:20.330Z,7.33
2018-07-24T20:43:48.771Z,8.43
2018-07-24T20:46:17.336Z,5.03
2018-07-24T20:48:46.395Z,3.43
2018-07-24T20:51:14.972Z,3.50
2018-07-24T20:53:43.041Z,4.30
2018-07-24T20:56:11.590Z,5.57
2018-07-24T20:58:40.063Z,6.20
2018-07-24T21:01:08.526Z,5.63
2018-07-24T21:03:37.043Z,6.90
2018-07-24T21:06:05.501Z,5.50
2018-07-24T21:08:34.061Z,6.00
2018-07-24T21:11:02.515Z,3.67
2018-07-24T21:13:31.009Z,7.43
2018-07-24T21:15:59.559Z,5.57
2018-07-24T21:18:27.994Z,6.33
2018-07-24T21:20:56.513Z,5.20
2018-07-24T21:23:24.975Z,4.83
2018-07-24T21:25:53.425Z,6.63
2018-07-24T21:28:21.871Z,4.40
2018-07-24T21:30:50.502Z,5.93
2018-07-24T21:33:18.984Z,4.10
2018-07-24T21:35:47.300Z,4.23
2018-07-24T21:38:15.992Z,5.03
2018-07-24T21:40:44.561Z,4.70
2018-07-24T21:43:13.354Z,4.17
2018-07-24T21:45:41.792Z,4.67
2018-07-24T21:48:10.250Z,5.23
2018-07-24T21:50:38.826Z,3.53
2018-07-24T21:53:08.002Z,4.33
2018-07-24T21:55:36.552Z,6.27
2018-07-24T21:58:05.162Z,3.43
2018-07-24T22:00:35.379Z,3.03
2018-07-24T22:03:04.877Z,3.13
2018-07-24T22:05:33.902Z,7.20
2018-07-24T22:08:02.369Z,3.10
2018-07-24T22:10:30.914Z,3.87
2018-07-24T22:12:59.356Z,5.07
2018-07-24T22:15:28.246Z,4.20
2018-07-24T22:17:57.414Z,4.17
2018-07-24T22:20:26.025Z,4.23
2018-07-24T22:22:54.636Z,4.47
2018-07-24T22:25:23.179Z,3.73
2018-07-24T22:27:51.705Z,5.13
2018-07-24T22:30:20.265Z,4.37
2018-07-24T22:32:48.686Z,3.60
2018-07-24T22:35:17.138Z,5.83
2018-07-24T22:37:45.595Z,5.27
2018-07-24T22:40:14.153Z,3.73
2018-07-24T22:42:42.297Z,2.97
2018-07-24T22:45:10.746Z,3.73
2018-07-24T22:47:39.174Z,7.27
2018-07-24T22:50:08.110Z,4.03
2018-07-24T22:52:36.682Z,3.30
2018-07-24T22:55:05.279Z,3.13
2018-07-24T22:57:33.837Z,4.07
2018-07-24T23:00:02.090Z,4.17
2018-07-24T23:02:30.502Z,4.40
2018-07-24T23:04:59.101Z,4.90
2018-07-24T23:07:27.683Z,4.57
2018-07-24T23:09:56.249Z,5.37
2018-07-24T23:12:24.734Z,4.57
2018-07-24T23:14:52.947Z,3.20
2018-07-24T23:17:21.445Z,5.20
2018-07-24T23:19:49.962Z,3.30
2018-07-24T23:22:18.429Z,5.60
2018-07-24T23:24:46.967Z,3.30
2018-07-24T23:27:15.529Z,3.67
2018-07-24T23:29:43.988Z,3.80
2018-07-24T23:32:12.153Z,3.53
2018-07-24T23:34:40.589Z,3.47
2018-07-24T23:37:09.063Z,3.50
2018-07-24T23:39:37.578Z,3.77
2018-07-24T23:42:06.039Z,8.57
2018-07-24T23:44:34.602Z,5.37
2018-07-24T23:47:03.169Z,6.37
2018-07-24T23:49:31.321Z,4.13
2018-07-24T23:51:59.853Z,3.37
2018-07-24T23:54:28.289Z,3.90
2018-07-24T23:56:56.793Z,4.63
2018-07-24T23:59:25.297Z,6.10
